METAR Data
IDs: Format: Raw Decoded Include TAF

Data at: 2216 UTC 10 May 2021

KLXV 102153Z AUTO 29009G18KT 10SM FEW049 OVC055 01/M04 A3006 RMK AO2 SNE25 SLP115 P0000 T00111039
KLXV 102133Z AUTO 31014G23KT 10SM FEW014 SCT037 OVC049 01/M03 A3006 RMK AO2 SNE25 P0000 T00061028
KLXV 102115Z AUTO VRB04KT 3SM -SN BR FEW011 BKN025 OVC032 M01/M03 A3006 RMK AO2 P0000 T10061028
KLXV 102053Z AUTO 34011G20KT 1 1/4SM -SN BR BKN025 BKN030 OVC037 M01/M03 A3006 RMK AO2 SNE14B36 SLP123 P0000 60002 T10111033 53002
KLXV 102046Z AUTO 34009G18KT 1 3/4SM -SN BR BKN031 OVC039 M01/M03 A3005 RMK AO2 SNE14B36 P0000 T10111033
KLXV 102026Z AUTO 33011G17KT 10SM FEW017 OVC034 00/M03 A3004 RMK AO2 SNE14 P0000 T00001033
KLXV 102007Z AUTO 34010KT 7SM -SN FEW013 BKN024 OVC029 00/M03 A3004 RMK AO2 P0000 T00001033
KLXV 101953Z AUTO 32008KT 2 1/2SM -SN BR FEW013 BKN022 OVC028 M01/M02 A3004 RMK AO2 SLP112 P0001 T10061022
KLXV 101934Z AUTO 34007KT 3SM -SN BR BKN016 OVC022 M01/M03 A3004 RMK AO2 P0001 T10111028
KLXV 101900Z AUTO 36006KT 1 1/4SM -SN BR OVC012 M01/M03 A3005 RMK AO2 P0000 T10111028
KLXV 101853Z AUTO 01006KT 3/4SM -SN BR VV012 M01/M03 A3005 RMK AO2 SLP111 P0001 T10111028
KLXV 101837Z AUTO 36007KT 1 1/4SM -SN BR FEW006 OVC012 M01/M03 A3006 RMK AO2 P0001 T10111028
KLXV 101822Z AUTO 35009G20KT 310V020 1/2SM SN FZFG FEW006 OVC012 M01/M03 A3006
KLXV 101753Z AUTO 36007KT 1SM -SN BR SCT007 BKN014 OVC024 01/M02 A3005 RMK AO2 SLP105 P0003 60003 T00061017 10006 21033 53003
KLXV 101739Z AUTO 35006KT 1SM -SN BR FEW005 BKN014 OVC027 01/M02 A3005 RMK AO2 P0002 T00061017
KLXV 101712Z AUTO 35004KT 1/2SM SN FZFG FEW005 OVC013 M01/M02 A3004 RMK AO2 P0001 T10061017
KLXV 101704Z AUTO 34005KT 1/2SM SN FZFG FEW005 OVC015 M01/M02 A3004 RMK AO2 P0000 T10061022
KLXV 101653Z AUTO 33006KT 1 3/4SM -SN BR FEW007 BKN021 OVC035 00/M02 A3003 RMK AO2 SLP104 P0000 T00001017
KLXV 101645Z AUTO 33005KT 3SM -SN BR FEW008 BKN028 OVC036 00/M02 A3003 RMK AO2 P0000 T00001022
KLXV 101637Z AUTO 33004KT 1 1/2SM -SN BR FEW008 BKN028 OVC035 00/M02 A3003 RMK AO2 P0000 T00001022
KLXV 101621Z AUTO 33004KT 2 1/2SM -SN BR BKN024 OVC035 M01/M03 A3003 RMK AO2 P0000 T10061028
KLXV 101602Z AUTO 00000KT 1 1/4SM -SN BKN022 BKN027 OVC035 M01/M03 A3003 RMK AO2 P0000 T10061033
KLXV 101553Z AUTO 00000KT 2 1/2SM -SN BKN028 OVC035 00/M03 A3003 RMK AO2 SNB12 SLP104 P0000 T00001028
KLXV 101542Z AUTO VRB03KT 4SM -SN FEW012 OVC033 00/M03 A3003 RMK AO2 SNB12 P0000 T00001028
KLXV 101534Z AUTO 36004KT 2 1/2SM -SN FEW012 BKN034 OVC043 00/M03 A3003 RMK AO2 SNB12 P0000 T00001028
KLXV 101453Z AUTO 26003KT 10SM FEW009 BKN040 OVC050 M01/M03 A3004 RMK AO2 SLP100 T10111028 58001
KLXV 101416Z AUTO 18003KT 10SM SCT007 BKN055 OVC075 M02/M03 A3004 RMK AO2 T10171028
KLXV 101353Z AUTO 00000KT 10SM OVC005 M02/M03 A3004 RMK AO2 SLP102 T10221033
KLXV 101329Z AUTO 17004KT 10SM OVC004 M03/M04 A3004 RMK AO2 T10281039
KLXV 101309Z AUTO VRB03KT 10SM OVC005 M03/M04 A3004 RMK AO2 T10331039
KLXV 101253Z AUTO 00000KT 9SM OVC004 M03/M04 A3004 RMK AO2 SLP102 T10331044
KLXV 101221Z AUTO 00000KT 3SM BR OVC002 M03/M04 A3004 RMK AO2 T10331039
KLXV 101217Z AUTO 00000KT 1SM BR OVC002 M03/M04 A3004 RMK AO2 VIS 1/4V4 T10331039
KLXV 101200Z AUTO 20003KT 1/4SM FZFG VV002 M03/M04 A3004 RMK AO2 T10331039
KLXV 101153Z AUTO 18004KT 1SM BR OVC002 M03/M04 A3004 RMK AO2 VIS 1/4V4 SLP097 60002 70002 T10331039 11006 21033 56007
KLXV 101151Z AUTO 18004KT 1 3/4SM BR OVC002 M03/M04 A3004 RMK AO2 VIS 1/2V4
KLXV 101122Z AUTO 16004KT 10SM BKN002 M03/M03 A3005 RMK AO2 T10281033
KLXV 101114Z AUTO 18007KT 2SM BR OVC002 M03/M03 A3005 RMK AO2 T10281033
KLXV 101105Z AUTO 18009KT 3/4SM BR VV002 M03/M03 A3005 RMK AO2 T10281033
KLXV 101053Z AUTO 19009KT 1/4SM FZFG VV002 M03/M03 A3005 RMK AO2 SNE15 SLP102 P0001 T10281033
KLXV 101019Z AUTO 17005KT 1/4SM FZFG VV003 M03/M03 A3006 RMK AO2 SNE15 P0001 T10281033
KLXV 101012Z AUTO 19006KT 1 1/2SM -SN BR BKN003 OVC010 M03/M03 A3006 RMK AO2 P0001 T10281033
KLXV 101005Z AUTO 19006KT 3SM -SN BR BKN003 OVC020 M02/M03 A3007 RMK AO2 P0001 T10221033
KLXV 100953Z AUTO 19006KT 2 1/2SM -SN BR BKN003 OVC024 M02/M03 A3007 RMK AO2 SLP107 P0000 T10221033
KLXV 100933Z AUTO 20004KT 5SM -SN BR BKN003 OVC028 M03/M03 A3007 RMK AO2 P0000 T10281033
KLXV 100902Z AUTO 18006KT 3SM -SN BR SCT004 OVC019 M02/M03 A3007 RMK AO2 P0000 T10221028
KLXV 100853Z AUTO 18005KT 1 3/4SM -SN BR FEW004 OVC021 M02/M03 A3008 RMK AO2 SNB31 SLP105 P0001 60001 T10221033 58006
KLXV 100844Z AUTO 19006KT 1 3/4SM -SN BR FEW004 OVC027 M02/M03 A3008 RMK AO2 SNB31 P0000 T10221028
KLXV 100840Z AUTO 18007KT 2SM -SN BR OVC029 M02/M03 A3008 RMK AO2 SNB31 P0000 T10171033
KLXV 100753Z AUTO 17005KT 10SM FEW090 SCT110 M02/M05 A3008 RMK AO2 SNB04E18 SLP096 P0000 T10171050
KLXV 100653Z AUTO 17004KT 10SM OVC044 M01/M06 A3011 RMK AO2 SLP107 T10061056 400611067
KLXV 100553Z AUTO 00000KT 10SM BKN080 OVC095 M01/M08 A3010 RMK AO2 SLP104 T10061078 10044 21017 50005
KLXV 100453Z AUTO 00000KT 10SM SCT060 M01/M08 A3011 RMK AO2 SLP112 T10111083
KLXV 100353Z AUTO 07005KT 10SM FEW120 M02/M09 A3010 RMK AO2 SLP117 T10171089
KLXV 100253Z AUTO 00000KT 10SM CLR 01/M10 A3008 RMK AO2 SLP107 T00061100 51005
KLXV 100153Z AUTO 23004KT 10SM FEW070 02/M10 A3008 RMK AO2 SLP115 T00171100
KLXV 100053Z AUTO 31010KT 10SM BKN065 03/M09 A3007 RMK AO2 SLP123 T00281094
KLXV 092353Z AUTO 28010G20KT 10SM BKN065 04/M10 A3006 RMK AO2 SLP114 T00441100 10061 20022 57000
KLXV 092253Z AUTO 26006G17KT 10SM OVC065 04/M09 A3005 RMK AO2 SLP112 T00391094
KLXV 092153Z AUTO 26008KT 240V320 10SM FEW047 OVC060 03/M08 A3007 RMK AO2 SLP117 T00331083
KLXV 092053Z AUTO 27011G21KT 10SM SCT060 BKN080 04/M09 A3006 RMK AO2 SLP104 T00441094 55000
KLXV 091953Z AUTO 25013G17KT 10SM OVC070 06/M11 A3005 RMK AO2 SLP090 T00561111
KLXV 091853Z AUTO 26017G23KT 10SM SCT075 SCT100 05/M12 A3006 RMK AO2 PK WND 28027/1836 SLP098 T00501117
KLXV 091753Z AUTO 29014G21KT 10SM FEW100 05/M13 A3006 RMK AO2 SLP095 T00501128 10061 21061 56007
KLXV 091653Z AUTO VRB05G18KT 10SM BKN100 04/M11 A3007 RMK AO2 SLP103 T00391106
KLXV 091553Z AUTO 17009KT 10SM CLR 02/M07 A3008 RMK AO2 SLP105 T00221067
KLXV 091453Z AUTO VRB04KT 10SM CLR 02/M08 A3009 RMK AO2 SLP109 T00171083 50003
KLXV 091353Z AUTO 02005KT 10SM CLR M02/M10 A3010 RMK AO2 SLP107 T10171100
KLXV 091253Z AUTO 01005KT 10SM CLR M06/M08 A3009 RMK AO2 SLP109 T10561083
KLXV 091153Z AUTO 04003KT 10SM CLR M06/M08 A3007 RMK AO2 SLP094 70001 T10611083 11022 21067 53001
KLXV 091053Z AUTO 04006KT 10SM CLR M06/M08 A3006 RMK AO2 SLP095 T10561083